createdAt,value
2022-08-17T00:00:43.569Z,69.08
2022-08-17T00:03:14.590Z,69.67
2022-08-17T00:05:52.271Z,70.02
2022-08-17T00:08:22.484Z,70.57
2022-08-17T00:10:50.076Z,70.44
2022-08-17T00:13:29.635Z,68.84
2022-08-17T00:16:02.394Z,68.75
2022-08-17T00:19:06.565Z,68.71
2022-08-17T00:21:25.175Z,68.32
2022-08-17T00:23:54.497Z,68.39
2022-08-17T00:26:43.999Z,68.89
2022-08-17T00:29:09.275Z,69.11
2022-08-17T00:31:37.279Z,68.70
2022-08-17T00:34:08.803Z,69.10
2022-08-17T00:36:38.769Z,69.39
2022-08-17T00:39:05.617Z,69.13
2022-08-17T00:41:40.772Z,68.55
2022-08-17T00:44:09.769Z,68.81
2022-08-17T00:46:42.131Z,67.90
2022-08-17T00:49:11.914Z,69.39
2022-08-17T00:51:44.273Z,69.01
2022-08-17T00:54:33.515Z,69.00
2022-08-17T00:57:17.090Z,70.27
2022-08-17T00:59:47.218Z,69.30
2022-08-17T01:02:29.985Z,69.90
2022-08-17T01:05:01.411Z,66.96
2022-08-17T01:07:30.902Z,62.92
2022-08-17T01:09:58.683Z,60.28
2022-08-17T01:12:25.277Z,58.58
2022-08-17T01:14:51.894Z,57.25
2022-08-17T01:17:20.801Z,56.36
2022-08-17T01:19:47.375Z,55.96
2022-08-17T01:22:20.061Z,56.16
2022-08-17T01:24:59.065Z,55.58
2022-08-17T01:27:26.740Z,55.74
2022-08-17T01:29:58.679Z,55.67
2022-08-17T01:32:30.468Z,55.71
2022-08-17T01:34:58.306Z,56.06
2022-08-17T01:37:35.709Z,55.99
2022-08-17T01:40:16.054Z,56.67
2022-08-17T01:43:01.449Z,57.19
2022-08-17T01:45:33.690Z,58.17
2022-08-17T01:48:03.104Z,58.45
2022-08-17T01:50:34.884Z,58.54
2022-08-17T01:53:11.509Z,58.57
2022-08-17T01:55:51.425Z,58.38
2022-08-17T01:58:19.241Z,58.26
2022-08-17T02:01:00.055Z,58.98
2022-08-17T02:03:31.263Z,58.56
2022-08-17T02:05:58.121Z,59.00
2022-08-17T02:08:38.984Z,59.43
2022-08-17T02:11:15.810Z,58.76
2022-08-17T02:13:48.937Z,58.98
2022-08-17T02:16:27.105Z,59.15
2022-08-17T02:19:06.233Z,58.97
2022-08-17T02:21:32.890Z,58.85
2022-08-17T02:24:01.825Z,58.55
2022-08-17T02:26:28.415Z,59.18
2022-08-17T02:28:57.483Z,59.12
2022-08-17T02:31:24.046Z,59.25
2022-08-17T02:33:56.664Z,59.01
2022-08-17T02:36:35.587Z,59.13
2022-08-17T02:39:07.450Z,59.43
2022-08-17T02:41:34.073Z,59.25
2022-08-17T02:44:00.748Z,59.60
2022-08-17T02:46:30.498Z,59.39
2022-08-17T02:48:57.515Z,59.50
2022-08-17T02:51:24.387Z,59.46
2022-08-17T02:53:53.215Z,59.98
2022-08-17T02:56:42.249Z,59.99
2022-08-17T02:59:11.504Z,60.31
2022-08-17T03:01:38.550Z,60.05
2022-08-17T03:04:05.203Z,60.35
2022-08-17T03:06:34.226Z,60.05
2022-08-17T03:09:04.084Z,60.50
2022-08-17T03:11:33.308Z,60.70
2022-08-17T03:14:00.274Z,60.26
2022-08-17T03:16:26.803Z,60.30
2022-08-17T03:18:54.770Z,60.66
2022-08-17T03:21:21.711Z,60.24
2022-08-17T03:23:48.436Z,61.41
2022-08-17T03:26:21.247Z,61.13
2022-08-17T03:28:47.838Z,61.34
2022-08-17T03:31:18.386Z,60.71
2022-08-17T03:33:45.128Z,61.36
2022-08-17T03:36:17.520Z,61.50
2022-08-17T03:38:44.048Z,62.40
2022-08-17T03:41:13.578Z,61.62
2022-08-17T03:43:40.299Z,61.84
2022-08-17T03:46:33.961Z,62.51
2022-08-17T03:49:24.045Z,62.79
2022-08-17T03:52:09.510Z,63.19
2022-08-17T03:54:54.601Z,64.16
2022-08-17T03:57:21.359Z,63.61
2022-08-17T03:59:48.118Z,63.61
2022-08-17T04:02:20.951Z,63.88
2022-08-17T04:04:51.092Z,64.45
2022-08-17T04:07:19.758Z,65.06
2022-08-17T04:09:46.492Z,64.83
2022-08-17T04:12:21.251Z,64.95
2022-08-17T04:14:53.562Z,65.93
2022-08-17T04:17:32.078Z,66.16
2022-08-17T04:19:58.635Z,66.03
2022-08-17T04:22:30.997Z,66.64
2022-08-17T04:25:08.285Z,66.74
2022-08-17T04:27:37.241Z,67.00
2022-08-17T04:30:07.428Z,66.76
2022-08-17T04:33:10.039Z,66.94
2022-08-17T04:35:42.793Z,67.28
2022-08-17T04:38:12.712Z,68.04
2022-08-17T04:40:58.177Z,68.41
2022-08-17T04:43:29.760Z,68.56
2022-08-17T04:46:00.237Z,67.90
2022-08-17T04:48:36.353Z,68.48
2022-08-17T04:51:12.349Z,69.78
2022-08-17T04:53:54.037Z,71.67
2022-08-17T04:56:23.248Z,70.61
2022-08-17T04:58:52.732Z,71.27
2022-08-17T05:01:24.116Z,71.59
2022-08-17T05:03:56.309Z,70.67
2022-08-17T05:06:26.520Z,70.64
2022-08-17T05:08:55.776Z,70.62
2022-08-17T05:11:26.203Z,71.26
2022-08-17T05:13:54.785Z,71.31
2022-08-17T05:16:24.906Z,72.65
2022-08-17T05:18:52.514Z,74.67
2022-08-17T05:21:20.854Z,74.07
2022-08-17T05:23:53.258Z,73.57
2022-08-17T05:26:26.886Z,73.11
2022-08-17T05:28:59.489Z,72.50
2022-08-17T05:31:31.352Z,71.97
2022-08-17T05:34:03.511Z,71.70
2022-08-17T05:36:42.780Z,71.34
2022-08-17T05:39:17.234Z,77.41
2022-08-17T05:41:46.614Z,79.64
2022-08-17T05:44:15.328Z,78.64
2022-08-17T05:46:48.116Z,76.71
2022-08-17T05:49:20.032Z,78.94
2022-08-17T05:52:06.035Z,78.45
2022-08-17T05:54:41.378Z,76.68
2022-08-17T05:57:17.774Z,75.58
2022-08-17T06:00:14.547Z,75.16
2022-08-17T06:02:59.746Z,75.45
2022-08-17T06:05:29.533Z,74.20
2022-08-17T06:08:04.968Z,72.97
2022-08-17T06:10:53.389Z,75.44
2022-08-17T06:13:45.000Z,77.91
2022-08-17T06:16:33.859Z,76.80
2022-08-17T06:19:18.439Z,74.91
2022-08-17T06:21:50.579Z,72.80
2022-08-17T06:24:29.358Z,75.32
2022-08-17T06:27:06.726Z,72.68
2022-08-17T06:29:44.082Z,70.37
2022-08-17T06:32:12.981Z,67.83
2022-08-17T06:34:43.722Z,65.33
2022-08-17T06:37:19.230Z,65.46
2022-08-17T06:40:04.406Z,61.93
2022-08-17T06:43:02.513Z,63.11
2022-08-17T06:45:43.498Z,61.22
2022-08-17T06:48:24.906Z,61.46
2022-08-17T06:51:00.804Z,63.54
2022-08-17T06:53:51.686Z,63.47
2022-08-17T06:56:54.092Z,62.48
2022-08-17T06:59:21.737Z,62.71
2022-08-17T07:01:52.150Z,61.20
2022-08-17T07:04:30.137Z,61.44
2022-08-17T07:07:26.823Z,60.03
2022-08-17T07:09:59.023Z,59.26
2022-08-17T07:12:31.469Z,58.23
2022-08-17T07:15:04.499Z,57.27
2022-08-17T07:17:47.523Z,57.33
2022-08-17T07:20:20.618Z,58.48
2022-08-17T07:23:00.029Z,57.60
2022-08-17T07:25:27.563Z,57.97
2022-08-17T07:28:00.308Z,57.46
2022-08-17T07:30:30.701Z,57.38
2022-08-17T07:33:20.132Z,55.90
2022-08-17T07:35:48.513Z,55.49
2022-08-17T07:38:25.485Z,53.78
2022-08-17T07:41:02.649Z,54.81
2022-08-17T07:43:38.093Z,55.66
2022-08-17T07:46:38.508Z,54.85
2022-08-17T07:49:07.666Z,54.66
2022-08-17T07:51:39.603Z,53.89
2022-08-17T07:54:15.250Z,52.68
2022-08-17T07:56:47.783Z,51.91
2022-08-17T07:59:38.820Z,50.45
2022-08-17T08:02:17.146Z,50.01
2022-08-17T08:05:10.119Z,51.14
2022-08-17T08:07:51.879Z,50.26
2022-08-17T08:10:27.928Z,51.56
2022-08-17T08:13:05.777Z,49.08
2022-08-17T08:15:53.582Z,48.55
2022-08-17T08:18:38.587Z,47.88
2022-08-17T08:21:29.176Z,48.07
2022-08-17T08:24:30.169Z,47.44
2022-08-17T08:27:27.240Z,46.61
2022-08-17T08:30:15.869Z,46.77
2022-08-17T08:33:07.595Z,45.25
2022-08-17T08:35:46.177Z,44.58
2022-08-17T08:38:23.499Z,44.21
2022-08-17T08:41:08.503Z,45.02
2022-08-17T08:44:06.007Z,44.35
2022-08-17T08:46:47.102Z,43.86
2022-08-17T08:50:02.750Z,43.69
2022-08-17T08:52:44.347Z,43.56
2022-08-17T08:55:38.699Z,43.67
2022-08-17T08:58:31.759Z,43.87
2022-08-17T09:01:09.182Z,43.61
2022-08-17T09:04:10.939Z,43.91
2022-08-17T09:07:27.950Z,43.03
2022-08-17T09:10:09.030Z,43.48
2022-08-17T09:13:17.670Z,43.01
2022-08-17T09:15:58.959Z,42.68
2022-08-17T09:19:00.039Z,42.78
2022-08-17T09:21:35.061Z,41.78
2022-08-17T09:24:14.137Z,41.56
2022-08-17T09:27:04.676Z,41.24
2022-08-17T09:29:36.436Z,41.26
2022-08-17T09:32:35.252Z,41.77
2022-08-17T09:35:10.472Z,41.71
2022-08-17T09:37:39.989Z,42.35
2022-08-17T09:40:25.763Z,42.72
2022-08-17T09:43:17.195Z,42.52
2022-08-17T09:45:52.000Z,41.75
2022-08-17T09:48:25.113Z,42.19
2022-08-17T09:51:05.942Z,41.66
2022-08-17T09:53:40.776Z,41.90
2022-08-17T09:56:07.411Z,40.60
2022-08-17T09:58:56.445Z,40.69
2022-08-17T10:01:31.531Z,39.90
2022-08-17T10:04:12.423Z,38.86
2022-08-17T10:06:50.423Z,38.94
2022-08-17T10:09:42.199Z,38.97
2022-08-17T10:12:35.616Z,39.59
2022-08-17T10:15:17.561Z,40.06
2022-08-17T10:17:59.421Z,40.31
2022-08-17T10:20:31.198Z,40.08
2022-08-17T10:23:32.252Z,40.57
2022-08-17T10:26:15.007Z,40.53
2022-08-17T10:29:01.701Z,40.34
2022-08-17T10:31:45.599Z,41.18
2022-08-17T10:34:20.579Z,40.19
2022-08-17T10:37:28.453Z,41.49
2022-08-17T10:40:22.332Z,41.39
2022-08-17T10:42:56.917Z,42.57
2022-08-17T10:45:34.766Z,43.15
2022-08-17T10:48:07.689Z,42.14
2022-08-17T10:50:55.419Z,41.59
2022-08-17T10:53:46.053Z,41.80
2022-08-17T10:56:12.565Z,41.53
2022-08-17T10:58:57.460Z,41.39
2022-08-17T11:01:33.156Z,41.04
2022-08-17T11:04:09.952Z,39.83
2022-08-17T11:06:41.922Z,40.07
2022-08-17T11:09:27.543Z,40.33
2022-08-17T11:12:25.586Z,40.06
2022-08-17T11:15:04.106Z,39.97
2022-08-17T11:17:35.268Z,39.63
2022-08-17T11:20:18.988Z,38.95
2022-08-17T11:23:10.176Z,39.61
2022-08-17T11:25:39.598Z,38.58
2022-08-17T11:28:19.413Z,38.39
2022-08-17T11:30:51.012Z,38.23
2022-08-17T11:33:29.791Z,37.83
2022-08-17T11:36:32.093Z,38.03
2022-08-17T11:39:14.303Z,38.61
2022-08-17T11:41:55.173Z,37.45
2022-08-17T11:44:37.799Z,37.06
2022-08-17T11:47:29.272Z,35.33
2022-08-17T11:50:17.083Z,35.25
2022-08-17T11:52:47.752Z,36.01
2022-08-17T11:55:41.761Z,36.68
2022-08-17T11:58:29.533Z,36.94
2022-08-17T12:01:06.645Z,35.44
2022-08-17T12:03:36.950Z,35.44
2022-08-17T12:06:30.642Z,35.87
2022-08-17T12:09:07.987Z,36.38
2022-08-17T12:12:18.094Z,35.66
2022-08-17T12:15:11.035Z,35.77
2022-08-17T12:17:40.167Z,37.03
2022-08-17T12:20:29.812Z,36.97
2022-08-17T12:23:23.376Z,36.49
2022-08-17T12:25:57.131Z,35.84
2022-08-17T12:28:33.486Z,35.73
2022-08-17T12:31:07.871Z,34.90
2022-08-17T12:33:36.781Z,35.09
2022-08-17T12:36:08.533Z,35.22
2022-08-17T12:38:39.870Z,35.20
2022-08-17T12:41:27.197Z,34.71
2022-08-17T12:44:02.811Z,35.02
2022-08-17T12:46:46.762Z,35.79
2022-08-17T12:49:15.211Z,34.69
2022-08-17T12:51:46.768Z,35.81
2022-08-17T12:54:41.094Z,35.90
2022-08-17T12:57:33.390Z,34.73
2022-08-17T13:00:17.552Z,34.04
2022-08-17T13:02:52.089Z,34.19
2022-08-17T13:05:25.974Z,34.51
2022-08-17T13:07:53.307Z,34.04
2022-08-17T13:10:28.641Z,34.10
2022-08-17T13:13:07.555Z,35.05
2022-08-17T13:15:51.043Z,35.24
2022-08-17T13:18:29.832Z,34.73
2022-08-17T13:20:59.141Z,34.57
2022-08-17T13:23:29.199Z,33.43
2022-08-17T13:26:15.045Z,33.66
2022-08-17T13:28:51.719Z,32.72
2022-08-17T13:31:30.353Z,32.67
2022-08-17T13:34:18.708Z,32.24
2022-08-17T13:36:50.663Z,33.02
2022-08-17T13:39:22.612Z,32.29
2022-08-17T13:41:54.017Z,31.68
2022-08-17T13:44:39.342Z,32.04
2022-08-17T13:47:17.098Z,32.52
2022-08-17T13:49:48.761Z,32.48
2022-08-17T13:52:52.250Z,31.88
2022-08-17T13:55:22.329Z,32.52
2022-08-17T13:58:06.552Z,31.88
2022-08-17T14:00:39.489Z,32.07
2022-08-17T14:03:11.132Z,32.36
2022-08-17T14:05:39.455Z,32.38
2022-08-17T14:08:06.611Z,32.42
2022-08-17T14:10:36.366Z,32.60
2022-08-17T14:13:03.652Z,32.41
2022-08-17T14:15:55.173Z,32.56
2022-08-17T14:18:18.996Z,32.50
2022-08-17T14:21:05.667Z,32.99
2022-08-17T14:23:32.948Z,32.86
2022-08-17T14:26:02.033Z,33.50
2022-08-17T14:28:28.727Z,33.42
2022-08-17T14:30:55.542Z,34.13
2022-08-17T14:33:24.841Z,34.20
2022-08-17T14:35:53.543Z,33.96
2022-08-17T14:38:23.429Z,34.33
2022-08-17T14:40:52.759Z,34.34
2022-08-17T14:43:20.423Z,34.31
2022-08-17T14:45:47.191Z,34.91
2022-08-17T14:48:13.757Z,34.56
2022-08-17T14:50:43.777Z,34.30
2022-08-17T14:53:13.545Z,34.51
2022-08-17T14:55:40.534Z,34.85
2022-08-17T14:58:08.836Z,34.63
2022-08-17T15:00:36.025Z,35.17
2022-08-17T15:03:03.143Z,34.80
2022-08-17T15:05:37.471Z,34.65
2022-08-17T15:08:09.644Z,34.96
2022-08-17T15:10:36.529Z,35.25
2022-08-17T15:13:12.968Z,35.79
2022-08-17T15:15:39.508Z,35.71
2022-08-17T15:18:07.945Z,35.58
2022-08-17T15:20:35.649Z,36.24
2022-08-17T15:23:02.344Z,38.26
2022-08-17T15:25:31.951Z,40.48
2022-08-17T15:28:01.930Z,40.66
2022-08-17T15:30:30.336Z,41.59
2022-08-17T15:32:58.810Z,41.11
2022-08-17T15:35:29.141Z,41.81
2022-08-17T15:38:10.695Z,41.77
2022-08-17T15:40:43.434Z,42.59
2022-08-17T15:43:23.327Z,42.94
2022-08-17T15:46:06.128Z,44.53
2022-08-17T15:48:41.804Z,47.00
2022-08-17T15:51:26.006Z,47.75
2022-08-17T15:54:18.881Z,48.92
2022-08-17T15:56:51.104Z,50.00
2022-08-17T15:59:20.220Z,51.98
2022-08-17T16:03:14.042Z,52.09
2022-08-17T16:04:39.150Z,52.38
2022-08-17T16:07:14.570Z,55.04
2022-08-17T16:09:44.232Z,55.00
2022-08-17T16:12:21.650Z,54.79
2022-08-17T16:14:53.318Z,56.14
2022-08-17T16:17:40.177Z,55.53
2022-08-17T16:20:19.552Z,54.63
2022-08-17T16:22:54.145Z,53.61
2022-08-17T16:25:51.993Z,53.66
2022-08-17T16:28:20.649Z,53.10
2022-08-17T16:30:49.649Z,52.99
2022-08-17T16:33:16.976Z,52.60
2022-08-17T16:35:43.920Z,53.44
2022-08-17T16:38:12.764Z,53.93
2022-08-17T16:40:42.585Z,54.05
2022-08-17T16:43:12.205Z,54.63
2022-08-17T16:45:42.265Z,54.86
2022-08-17T16:48:09.679Z,54.97
2022-08-17T16:50:38.878Z,53.49
2022-08-17T16:53:24.123Z,53.22
2022-08-17T16:55:53.586Z,53.15
2022-08-17T16:58:20.398Z,51.67
2022-08-17T17:00:51.815Z,51.81
2022-08-17T17:03:24.871Z,50.76
2022-08-17T17:06:18.739Z,49.66
2022-08-17T17:09:03.276Z,49.89
2022-08-17T17:11:53.353Z,50.07
2022-08-17T17:14:44.770Z,50.47
2022-08-17T17:17:21.128Z,51.49
2022-08-17T17:20:15.494Z,51.65
2022-08-17T17:23:07.673Z,51.59
2022-08-17T17:25:55.182Z,51.24
2022-08-17T17:28:39.075Z,51.06
2022-08-17T17:31:23.840Z,51.19
2022-08-17T17:33:57.478Z,50.70
2022-08-17T17:36:33.377Z,50.54
2022-08-17T17:39:18.083Z,49.95
2022-08-17T17:41:56.205Z,50.24
2022-08-17T17:44:28.760Z,50.04
2022-08-17T17:46:58.378Z,49.45
2022-08-17T17:49:37.061Z,50.73
2022-08-17T17:52:20.288Z,50.46
2022-08-17T17:54:52.839Z,50.62
2022-08-17T17:57:50.100Z,51.01
2022-08-17T18:00:37.231Z,50.67
2022-08-17T18:03:25.358Z,50.48
2022-08-17T18:05:54.915Z,49.99
2022-08-17T18:08:34.833Z,50.31
2022-08-17T18:11:12.411Z,50.28
2022-08-17T18:13:56.860Z,50.32
2022-08-17T18:16:32.007Z,49.31
2022-08-17T18:19:03.225Z,49.61
2022-08-17T18:21:39.573Z,49.99
2022-08-17T18:24:08.686Z,51.32
2022-08-17T18:26:38.046Z,51.73
2022-08-17T18:29:24.277Z,52.62
2022-08-17T18:32:12.628Z,53.66
2022-08-17T18:34:48.516Z,54.00
2022-08-17T18:37:31.851Z,55.08
2022-08-17T18:40:11.331Z,56.54
2022-08-17T18:42:38.739Z,56.37
2022-08-17T18:45:05.804Z,56.59
2022-08-17T18:47:35.123Z,57.63
2022-08-17T18:50:22.554Z,58.41
2022-08-17T18:52:51.527Z,59.50
2022-08-17T18:55:23.071Z,59.60
2022-08-17T18:57:59.094Z,59.54
2022-08-17T19:00:41.868Z,58.18
2022-08-17T19:03:20.432Z,59.59
2022-08-17T19:08:28.582Z,69.16
2022-08-17T19:11:06.519Z,73.94
2022-08-17T19:13:46.147Z,77.14
2022-08-17T19:16:31.878Z,80.35
2022-08-17T19:19:12.197Z,83.63
2022-08-17T19:21:49.323Z,83.66
2022-08-17T19:24:23.586Z,83.79
2022-08-17T19:27:06.848Z,83.99
2022-08-17T19:30:00.793Z,85.50
2022-08-17T19:32:34.752Z,87.22
2022-08-17T19:35:05.310Z,87.53
2022-08-17T19:38:33.589Z,87.54
2022-08-17T19:41:26.409Z,91.35
2022-08-17T19:44:12.359Z,89.73
2022-08-17T19:47:00.909Z,89.70
2022-08-17T19:49:56.924Z,87.58
2022-08-17T19:52:41.772Z,89.75
2022-08-17T19:55:33.294Z,90.56
2022-08-17T19:58:41.660Z,91.82
2022-08-17T20:01:19.587Z,92.84
2022-08-17T20:04:14.410Z,94.13
2022-08-17T20:06:45.659Z,95.93
2022-08-17T20:09:17.976Z,94.83
2022-08-17T20:11:54.866Z,95.68
2022-08-17T20:14:25.465Z,97.71
2022-08-17T20:16:59.297Z,97.25
2022-08-17T20:19:37.613Z,98.21
2022-08-17T20:22:13.404Z,98.18
2022-08-17T20:24:50.541Z,98.57
2022-08-17T20:27:31.789Z,99.46
2022-08-17T20:30:13.212Z,100.00
2022-08-17T20:32:55.525Z,100.00
2022-08-17T20:35:27.066Z,100.00
2022-08-17T20:37:56.374Z,100.00
2022-08-17T20:40:36.198Z,100.00
2022-08-17T20:43:40.531Z,100.00
2022-08-17T20:46:48.362Z,100.00
2022-08-17T20:49:17.252Z,100.00
2022-08-17T20:52:07.888Z,100.00
2022-08-17T20:54:59.941Z,100.00
2022-08-17T20:57:32.637Z,100.00
2022-08-17T21:00:16.504Z,100.00
2022-08-17T21:02:51.303Z,100.00
2022-08-17T21:06:00.117Z,100.00
2022-08-17T21:08:36.031Z,100.00
2022-08-17T21:11:56.662Z,100.00
2022-08-17T21:14:17.540Z,100.00
2022-08-17T21:17:06.866Z,100.00
2022-08-17T21:20:08.114Z,100.00
2022-08-17T21:22:52.579Z,100.00
2022-08-17T21:25:50.515Z,100.00
2022-08-17T21:29:31.046Z,100.00
2022-08-17T21:32:01.582Z,100.00
2022-08-17T21:34:37.313Z,100.00
2022-08-17T21:37:25.034Z,100.00
2022-08-17T21:39:54.630Z,100.00
2022-08-17T21:42:55.649Z,100.00
2022-08-17T21:45:38.863Z,100.00
2022-08-17T21:48:16.444Z,100.00
2022-08-17T21:50:57.212Z,100.00
2022-08-17T21:53:39.009Z,100.00
2022-08-17T21:56:06.962Z,100.00
2022-08-17T21:58:40.263Z,100.00
2022-08-17T22:01:12.990Z,100.00
2022-08-17T22:03:48.233Z,100.00
2022-08-17T22:06:20.920Z,100.00
2022-08-17T22:09:13.808Z,100.00
2022-08-17T22:12:04.734Z,100.00
2022-08-17T22:14:52.506Z,100.00
2022-08-17T22:17:25.178Z,100.00
2022-08-17T22:19:58.123Z,100.00
2022-08-17T22:22:28.885Z,100.00
2022-08-17T22:25:01.594Z,100.00
2022-08-17T22:27:55.456Z,100.00
2022-08-17T22:30:30.252Z,100.00
2022-08-17T22:32:58.691Z,100.00
2022-08-17T22:35:25.195Z,100.00
2022-08-17T22:37:52.071Z,100.00
2022-08-17T22:40:31.050Z,100.00
2022-08-17T22:43:00.698Z,100.00
2022-08-17T22:45:30.414Z,100.00
2022-08-17T22:48:02.111Z,100.00
2022-08-17T22:50:31.629Z,100.00
2022-08-17T22:53:22.686Z,100.00
2022-08-17T22:56:14.476Z,100.00
2022-08-17T22:59:10.493Z,100.00
2022-08-17T23:01:41.610Z,100.00
2022-08-17T23:04:30.159Z,100.00
2022-08-17T23:06:56.795Z,100.00
2022-08-17T23:09:25.841Z,100.00
2022-08-17T23:11:59.634Z,100.00
2022-08-17T23:14:31.644Z,100.00
2022-08-17T23:17:04.516Z,100.00
2022-08-17T23:19:33.561Z,100.00
2022-08-17T23:22:04.212Z,100.00
2022-08-17T23:24:35.609Z,100.00
2022-08-17T23:27:07.375Z,100.00
2022-08-17T23:29:39.365Z,100.00
2022-08-17T23:32:11.036Z,100.00
2022-08-17T23:34:43.991Z,100.00
2022-08-17T23:37:14.300Z,100.00
2022-08-17T23:39:40.979Z,100.00
2022-08-17T23:42:15.354Z,100.00
2022-08-17T23:44:44.842Z,100.00
2022-08-17T23:47:11.491Z,100.00
2022-08-17T23:49:41.377Z,100.00
2022-08-17T23:52:12.527Z,100.00
2022-08-17T23:54:48.277Z,100.00
2022-08-17T23:57:19.190Z,100.00
2022-08-17T23:59:48.836Z,100.00
